Ana Sayfa
METAR-TAF:

METAR-TAF

Havaalanları :

Siirt Havalimanı

Siirt, Türkiye

Enlem: 37-58-41N, Boylam: 41-50-21E, yükseklik: 610 m

Güncel hava durumu gözlemi

Rapor saat 12:50 UTC de 10 saat ve 56 dakika önce yapıldı.
Sakin rüzgar
Sıcaklık 10°C
Nem 46%
Basınç 1020 hPa
Görüş mesafesi 10 km veya daha fazla
4000 ft yükseklikte parçalı bulutlu
10000 ft yükseklikte parçalı çok bulutlu

METAR: LTCL 231250Z 00000KT 9999 SCT040 BKN100 10/M01 Q1020

Saat: 02:46 (23:46 UTC)

Tahmin

Rapor saat 13:40 UTC de 10 saat ve 6 dakika önce yapıldı.
Ayın 23'si saat 15 UTC'den ayın 23'si saat 24 UTC'ye kadar geçerli Tahmin
Rüzgar değişken yönden 2 kt
Görüş mesafesi 10 km veya daha fazla
4000 ft yükseklikte parçalı bulutlu
10000 ft yükseklikte parçalı çok bulutlu

TAF: LTCL 231340Z 2315/2324 VRB02KT 9999 SCT040 BKN100

4.000'den fazla havaalanı için hava durumu gözlemleri ve tahminleri (METAR ve TAF raporları).

Kullanılabilir istasyonlar harita üzerinde sarı ve kırmızı noktalarla gösterilir.

İstasyonun adını görmek için fareyi noktanın üzerinde gezdirin.

Sonrasında hava gözlem ve tahminlerini görmek için tıklayın.

Haritayı değiştirmek için: yaklaştırmak için siyah artı işaretli yeşil düğmeye ve uzaklaştırmak için de eksi işaretli düğmeye hızla tıklayın; bitişik haritalar için yeşil okları kullanın.


METAR-TAF: